Weather observations for the past three days for
New Smyrna Beach Municipal Airport
| Date | Time (edt) | Wind (mph) | Vis. (mi.) | Weather | Sky Cond. | Temperature (ºF) | Relative Humidity | Wind Chill (°F) | Heat Index (°F) | Pressure | Precipitation (in) | ||||||
|---|---|---|---|---|---|---|---|---|---|---|---|---|---|---|---|---|---|
| Air | Dwpt | 6 hour | altimeter (in) | sea level (mb) | 1 hr | 3 hr | 6 hr | ||||||||||
| Max. | Min. | ||||||||||||||||
| 09 | 17:47 | N 14 | 1.00 | Rain Fog/Mist | BKN003 | 75.2 | 75.2 | 100% | 73 | 29.87 | 0.0 | ||||||
| 09 | 16:47 | E 12 | 10.00 | Thunderstorm in Vicinity | BKN060 | 80.6 | 78.8 | 94% | 88 | 29.87 | 0.0 | ||||||
| 09 | 15:47 | E 9 | 10.00 | Mostly Cloudy | BKN060 | 84.2 | 78.8 | 84% | 96 | 29.87 | 0.0 | ||||||
| 09 | 14:47 | W 13 | 10.00 | Partly Cloudy | SCT030 | 89.6 | 71.6 | 55% | 96 | 29.89 | 0.0 | ||||||
| 09 | 13:47 | SW 13 | 10.00 | Partly Cloudy | SCT030 | 91.4 | 69.8 | 49% | 97 | 29.91 | 0.0 | ||||||
| 09 | 12:47 | W 10 G 17 | 10.00 | Partly Cloudy | SCT020 | 91.4 | 69.8 | 49% | 97 | 29.9 | 0.0 | ||||||
| 09 | 11:47 | SW 9 G 15 | 10.00 | Fair | CLR | 87.8 | 71.6 | 59% | 94 | 29.92 | 0.0 | ||||||
| 09 | 10:47 | SW 7 | 10.00 | Fair | CLR | 86 | 75.2 | 70% | 95 | 29.93 | 0.0 | ||||||
| 09 | 09:47 | S 5 | 10.00 | Partly Cloudy | SCT016 | 80.6 | 77 | 89% | 87 | 29.93 | 0.0 | ||||||
| 09 | 08:47 | E 3 | 10.00 | Partly Cloudy | SCT014 | 78.8 | 77 | 94% | 83 | 29.92 | 0.0 | ||||||
| 09 | 07:47 | E 3 | 10.00 | Partly Cloudy | SCT022 | 77 | 75.2 | 94% | 78 | 29.92 | 0.0 | ||||||
| 09 | 06:47 | NE 3 | 10.00 | Overcast | OVC015 | 75.2 | 75.2 | 100% | 73 | 29.92 | 0.0 | ||||||
| 08 | 21:47 | S 6 | 8.00 | Partly Cloudy | SCT003 SCT020 | 75.2 | 75.2 | 100% | 73 | 29.96 | 0.0 | ||||||
| 08 | 20:47 | E 12 | 6.00 | Fog/Mist | BKN003 OVC010 | 73.4 | 73.4 | 100% | 29.93 | 0.0 | |||||||
| 08 | 19:47 | NE 14 G 43 | 2.00 | Thunderstorm Rain | BKN010 | 77 | 75.2 | 94% | 78 | 29.93 | 0.0 | ||||||
| 08 | 18:47 | E 14 G 21 | 7.00 | Mostly Cloudy | BKN013 | 82.4 | 77 | 84% | 91 | 29.89 | 0.0 | ||||||
| 08 | 17:47 | E 14 | 7.00 | A Few Clouds | FEW040 | 82.4 | 77 | 84% | 91 | 29.88 | 0.0 | ||||||
| 08 | 16:47 | E 12 G 20 | 7.00 | A Few Clouds | FEW040 | 84.2 | 77 | 79% | 94 | 29.89 | 0.0 | ||||||
| 08 | 15:47 | E 12 G 20 | 7.00 | A Few Clouds | FEW040 | 84.2 | 77 | 79% | 94 | 29.91 | 0.0 | ||||||
| 08 | 13:47 | E 10 | 7.00 | Partly Cloudy | FEW065 SCT080 | 84.2 | 77 | 79% | 94 | 29.95 | 0.0 | ||||||
| 08 | 12:47 | W 10 | 7.00 | Mostly Cloudy | BKN030 | 84.2 | 77 | 79% | 94 | 29.97 | 0.0 | ||||||
| 08 | 10:47 | W 8 | 10.00 | Partly Cloudy | SCT030 | 82.4 | 77 | 84% | 91 | 29.99 | 0.0 | ||||||
| 08 | 09:47 | W 8 | 10.00 | Mostly Cloudy | BKN015 | 80.6 | 75.2 | 84% | 86 | 29.99 | 0.0 | ||||||
| 08 | 08:47 | W 8 | 10.00 | A Few Clouds | FEW019 | 77 | 75.2 | 94% | 78 | 29.98 | 0.0 | ||||||
| 08 | 07:47 | W 3 | 10.00 | Fair | CLR | 73.4 | 73.4 | 100% | 29.97 | 0.0 | |||||||
| 08 | 06:47 | W 3 | 10.00 | Fair | CLR | 69.8 | 69.8 | 100% | 29.94 | 0.0 | |||||||
| 07 | 21:47 | W 5 | 10.00 | Fair | CLR | 80.6 | 57.2 | 45% | 81 | 29.91 | 0.0 | ||||||
| 07 | 20:47 | W 7 | 10.00 | Fair | CLR | 82.4 | 55.4 | 40% | 82 | 29.9 | 0.0 | ||||||
| 07 | 18:47 | N 7 G 18 | 10.00 | Fair | CLR | 91.4 | 64.4 | 41% | 93 | 29.88 | 0.0 | ||||||
| 07 | 17:47 | W 8 G 18 | 10.00 | Fair | CLR | 95 | 62.6 | 34% | 96 | 29.87 | 0.0 | ||||||
| 07 | 16:47 | W 9 G 16 | 10.00 | Fair | CLR | 95 | 62.6 | 34% | 96 | 29.89 | 0.0 | ||||||
| 07 | 15:47 | SW 13 G 22 | 10.00 | A Few Clouds | FEW | 95 | 60.8 | 32% | 95 | 29.9 | 0.0 | ||||||
| 07 | 14:47 | SW 14 G 21 | 10.00 | Fair | CLR | 95 | 64.4 | 36% | 97 | 29.92 | 0.0 | ||||||
| 07 | 13:47 | W 16 | 10.00 | Fair | CLR | 93.2 | 66.2 | 41% | 96 | 29.96 | 0.0 | ||||||
| 07 | 12:47 | W 8 G 17 | 10.00 | Fair | CLR | 91.4 | 71.6 | 52% | 99 | 29.97 | 0.0 | ||||||
| 07 | 11:47 | W 10 G 17 | 10.00 | Fair | CLR | 87.8 | 71.6 | 59% | 94 | 29.98 | 0.0 | ||||||
| 07 | 10:47 | SW 12 | 10.00 | Fair | CLR | 86 | 71.6 | 62% | 92 | 30 | 0.0 | ||||||
| 07 | 09:47 | SW 13 | 10.00 | Fair | CLR | 80.6 | 71.6 | 74% | 85 | 30 | 0.0 | ||||||
| 07 | 08:47 | S 5 | 10.00 | Fair | CLR | 75.2 | 71.6 | 89% | 75 | 30.01 | 0.0 | ||||||
| 07 | 07:47 | S 5 | 10.00 | Fair | CLR | 69.8 | 69.8 | 100% | 30.01 | 0.0 | |||||||
| 07 | 06:47 | S 5 | 10.00 | Fair | CLR | 68 | 68 | 100% | 30 | 0.0 | |||||||
| 06 | 21:47 | SE 10 | 10.00 | Fair | CLR | 77 | 68 | 74% | 79 | 30 | 0.0 | ||||||
| 06 | 20:47 | S 10 | 10.00 | Fair | CLR | 77 | 66.2 | 69% | 79 | 29.99 | 0.0 | ||||||
| 06 | 19:47 | SE 13 G 20 | 10.00 | Fair | CLR | 78.8 | 68 | 70% | 81 | 29.99 | 0.0 | ||||||
| Date | Time (edt) | Wind (mph) | Vis. (mi.) | Weather | Sky Cond. | Air | Dwpt | Max. | Min. | Relative Humidity | Wind Chill (°F) | Heat Index (°F) | altimeter (in) | sea level (mb) | 1 hr | 3 hr | 6 hr |
| 6 hour | |||||||||||||||||
| Temperature (ºF) | Pressure | Precipitation (in) | |||||||||||||||